This is the latest recevied weather packets stored in our database for station/object IU1FIL-3. If no packets are shown the sender has not sent any weather packets the latest 10 day(s).
| Time | Temp. | Humidity | Pressure | Rain* | Wind** | Luminosity | Snow |
|---|---|---|---|---|---|---|---|
| 1777747650 | 15.56° C | 10% | - | - | - | - | - |
| 1777747047 | 16.11° C | 10% | - | - | - | - | - |
| 1777746446 | 16.67° C | 10% | - | - | - | - | - |
| 1777745844 | 17.22° C | 96% | 1022.6 hPa | - | - | - | - |
| 1777745241 | 17.22° C | 91% | 1022.6 hPa | - | - | - | - |
| 1777744640 | 17.78° C | 80% | 1022.5 hPa | - | - | - | - |
| 1777744038 | 19.44° C | 61% | 1022.3 hPa | - | - | - | - |
| 1777743436 | 19.44° C | 61% | 1022.1 hPa | - | - | - | - |
| 1777742834 | 18.89° C | 63% | 1022.1 hPa | - | - | - | - |
| 1777742232 | 21.11° C | 47% | 1022 hPa | - | - | - | - |
| 1777741630 | 22.78° C | 38% | 1021.7 hPa | - | - | - | - |
| 1777741029 | 23.89° C | 32% | 1021.7 hPa | - | - | - | - |
| 1777740427 | 22.78° C | 36% | 1021.9 hPa | - | - | - | - |
| 1777739825 | 23.89° C | 33% | 1021.8 hPa | - | - | - | - |
| 1777739224 | 22.78° C | 36% | 1022 hPa | - | - | - | - |
| 1777738622 | 23.89° C | 33% | 1022 hPa | - | - | - | - |
| 1777738020 | 23.89° C | 36% | 1022.1 hPa | - | - | - | - |
| 1777737418 | 22.78° C | 38% | 1022.3 hPa | - | - | - | - |
| 1777736816 | 23.33° C | 38% | 1022.3 hPa | - | - | - | - |
| 1777736214 | 22.22° C | 41% | 1022.7 hPa | - | - | - | - |
| 1777735612 | 22.78° C | 41% | 1022.6 hPa | - | - | - | - |
| 1777735010 | 22.78° C | 40% | 1022.7 hPa | - | - | - | - |
| 1777734408 | 22.78° C | 41% | 1022.8 hPa | - | - | - | - |
| 1777733806 | 22.22° C | 37% | 1023 hPa | - | - | - | - |
| 1777733204 | 22.22° C | 40% | 1023.1 hPa | - | - | - | - |
* Rain since midnight (hover to see other rain measurements)
** Current wind speed in m/s (hover to see current wind gust speed)